Time;durP1;ratioP1;P1;durP2;ratioP2;P2;SDS_P1;SDS_P2;PMS_P1;PMS_P2;Temp;Humidity;BMP_temperature;BMP_pressure;BME280_temperature;BME280_humidity;BME280_pressure;Samples;Min_cycle;Max_cycle;Signal;HPM_P1;HPM_P2
2022/02/24 00:01:00;;;;;;;34.50;23.50;;;;;;;;;;5025279;28;89779;-75
2022/02/24 00:03:28;;;;;;;29.17;23.48;;;;;;;;;;5026256;28;86657;-76
2022/02/24 00:05:57;;;;;;;31.48;25.10;;;;;;;;;;5026260;28;86936;-76
2022/02/24 00:08:24;;;;;;;33.45;24.52;;;;;;;;;;5025501;28;89151;-76
2022/02/24 00:10:52;;;;;;;32.05;23.80;;;;;;;;;;5024737;28;89468;-76
2022/02/24 00:13:19;;;;;;;32.90;24.35;;;;;;;;;;5025543;28;86678;-76
2022/02/24 00:15:46;;;;;;;36.75;24.38;;;;;;;;;;5025202;28;86849;-76
2022/02/24 00:18:13;;;;;;;34.47;26.60;;;;;;;;;;5024416;28;90208;-76
2022/02/24 00:20:41;;;;;;;35.85;26.55;;;;;;;;;;5024569;28;88656;-76
2022/02/24 00:23:09;;;;;;;32.53;24.90;;;;;;;;;;5024257;28;86797;-77
2022/02/24 00:25:36;;;;;;;38.63;27.38;;;;;;;;;;5026009;28;86891;-76
2022/02/24 00:28:06;;;;;;;42.45;30.92;;;;;;;;;;5024200;28;89877;-77
2022/02/24 00:30:34;;;;;;;43.50;31.23;;;;;;;;;;5024668;28;87904;-76
2022/02/24 00:33:01;;;;;;;45.08;31.30;;;;;;;;;;5025532;28;86998;-76
2022/02/24 00:35:29;;;;;;;38.63;28.52;;;;;;;;;;5024719;28;86228;-77
2022/02/24 00:37:57;;;;;;;34.10;25.83;;;;;;;;;;5022042;28;89665;-77
2022/02/24 00:40:25;;;;;;;28.92;22.15;;;;;;;;;;5025075;28;89317;-76
2022/02/24 00:42:52;;;;;;;32.78;21.75;;;;;;;;;;5023622;28;87730;-76
2022/02/24 00:45:21;;;;;;;27.02;22.17;;;;;;;;;;5023756;28;86994;-76
2022/02/24 00:47:49;;;;;;;25.05;21.58;;;;;;;;;;5024516;28;88611;-76
2022/02/24 00:50:17;;;;;;;35.13;23.48;;;;;;;;;;5024625;28;89370;-76
2022/02/24 00:52:44;;;;;;;33.55;25.80;;;;;;;;;;5024124;28;86863;-76
2022/02/24 00:55:13;;;;;;;33.63;23.83;;;;;;;;;;5023680;28;86939;-76
2022/02/24 00:57:40;;;;;;;32.17;22.02;;;;;;;;;;5023960;28;90010;-76
2022/02/24 01:00:07;;;;;;;28.20;22.05;;;;;;;;;;5025382;28;88912;-76
2022/02/24 01:02:35;;;;;;;30.70;22.58;;;;;;;;;;5023492;28;86876;-76
2022/02/24 01:05:03;;;;;;;32.08;24.45;;;;;;;;;;5023868;28;86863;-76
2022/02/24 01:07:30;;;;;;;28.98;22.58;;;;;;;;;;5022434;28;90772;-77
2022/02/24 01:09:58;;;;;;;34.67;24.58;;;;;;;;;;5023307;28;90131;-76
2022/02/24 01:12:25;;;;;;;31.08;22.33;;;;;;;;;;5024703;28;86750;-75
2022/02/24 01:14:53;;;;;;;32.47;24.33;;;;;;;;;;5023544;28;86921;-74
2022/02/24 01:17:22;;;;;;;27.25;21.38;;;;;;;;;;5023606;28;90025;-74
2022/02/24 01:19:49;;;;;;;27.85;23.00;;;;;;;;;;5023446;28;89424;-74
2022/02/24 01:22:17;;;;;;;26.77;20.98;;;;;;;;;;5023156;28;87049;-75
2022/02/24 01:24:44;;;;;;;32.30;23.65;;;;;;;;;;5025166;28;86133;-74
2022/02/24 01:27:12;;;;;;;31.15;23.52;;;;;;;;;;5023310;28;88587;-75
2022/02/24 01:29:41;;;;;;;24.55;20.77;;;;;;;;;;5023355;28;89762;-76
2022/02/24 01:32:08;;;;;;;25.17;19.85;;;;;;;;;;5023903;28;87787;-76
2022/02/24 01:34:36;;;;;;;29.80;22.60;;;;;;;;;;5023509;28;86951;-76
2022/02/24 01:37:03;;;;;;;26.30;20.98;;;;;;;;;;5024494;28;89516;-77
2022/02/24 01:39:31;;;;;;;29.42;21.40;;;;;;;;;;5022829;28;88570;-77
2022/02/24 01:41:58;;;;;;;27.45;20.85;;;;;;;;;;5023100;28;86785;-76
2022/02/24 01:44:26;;;;;;;25.02;19.30;;;;;;;;;;5022919;28;86999;-76
2022/02/24 01:46:54;;;;;;;25.75;20.27;;;;;;;;;;5023756;28;89510;-76
2022/02/24 01:49:22;;;;;;;27.85;20.88;;;;;;;;;;5023962;28;88557;-77
2022/02/24 01:51:50;;;;;;;27.88;21.92;;;;;;;;;;5022996;28;86653;-77
2022/02/24 01:54:18;;;;;;;25.17;20.13;;;;;;;;;;5023451;28;87056;-76
2022/02/24 01:56:46;;;;;;;24.55;19.00;;;;;;;;;;5023351;28;90737;-76
2022/02/24 01:59:13;;;;;;;28.52;19.58;;;;;;;;;;5023001;28;90646;-77
2022/02/24 02:01:40;;;;;;;29.42;18.52;;;;;;;;;;5023204;28;86810;-77
2022/02/24 02:04:10;;;;;;;21.17;18.40;;;;;;;;;;5024238;28;87046;-75
2022/02/24 02:06:39;;;;;;;27.73;19.73;;;;;;;;;;5023654;28;90078;-76
2022/02/24 02:09:06;;;;;;;23.77;17.80;;;;;;;;;;5022693;28;88062;-77
2022/02/24 02:11:33;;;;;;;25.40;17.73;;;;;;;;;;5023142;28;86852;-77
2022/02/24 02:14:01;;;;;;;22.65;18.30;;;;;;;;;;5024696;28;86175;-77
2022/02/24 02:16:27;;;;;;;23.83;17.17;;;;;;;;;;5022054;28;89341;-77
2022/02/24 02:18:56;;;;;;;24.67;17.50;;;;;;;;;;5024204;28;87417;-77
2022/02/24 02:21:23;;;;;;;21.48;15.25;;;;;;;;;;5023691;28;87922;-78
2022/02/24 02:23:51;;;;;;;22.05;16.13;;;;;;;;;;5022540;28;87022;-77
2022/02/24 02:26:19;;;;;;;21.63;15.98;;;;;;;;;;5023747;28;89601;-77
2022/02/24 02:28:47;;;;;;;19.88;15.80;;;;;;;;;;5023360;28;89678;-77
2022/02/24 02:31:20;;;;;;;24.42;17.63;;;;;;;;;;5023547;28;86858;-77
2022/02/24 02:33:47;;;;;;;22.50;16.50;;;;;;;;;;5023692;28;86890;-78
2022/02/24 02:36:14;;;;;;;25.00;17.10;;;;;;;;;;5022642;28;89966;-77
2022/02/24 02:38:41;;;;;;;22.67;17.60;;;;;;;;;;5023798;28;89640;-78
2022/02/24 02:41:09;;;;;;;23.42;17.92;;;;;;;;;;5023617;28;86793;-77
2022/02/24 02:43:36;;;;;;;26.55;19.02;;;;;;;;;;5022392;28;86885;-77
2022/02/24 02:46:04;;;;;;;22.48;18.83;;;;;;;;;;5021473;28;90644;-77
2022/02/24 02:48:31;;;;;;;22.42;17.75;;;;;;;;;;5021683;28;90673;-77
2022/02/24 02:50:59;;;;;;;23.80;19.52;;;;;;;;;;5022489;28;86716;-77
2022/02/24 02:53:26;;;;;;;25.05;18.10;;;;;;;;;;5022468;28;87018;-77
2022/02/24 02:55:53;;;;;;;21.67;17.42;;;;;;;;;;5021658;28;90037;-77
2022/02/24 02:58:21;;;;;;;25.38;20.00;;;;;;;;;;5022049;28;88660;-76
2022/02/24 03:00:48;;;;;;;27.92;18.48;;;;;;;;;;5021800;28;86867;-76
2022/02/24 03:03:16;;;;;;;24.17;18.02;;;;;;;;;;5022588;28;86218;-76
2022/02/24 03:05:43;;;;;;;20.25;17.85;;;;;;;;;;5021019;28;88592;-77
2022/02/24 03:08:11;;;;;;;25.55;18.45;;;;;;;;;;5022882;28;89559;-75
2022/02/24 03:10:39;;;;;;;21.90;19.08;;;;;;;;;;5022196;28;87676;-75
2022/02/24 03:13:07;;;;;;;23.33;18.20;;;;;;;;;;5021968;28;86955;-75
2022/02/24 03:15:34;;;;;;;22.40;16.98;;;;;;;;;;5021594;28;89699;-74
2022/02/24 03:18:02;;;;;;;27.60;17.67;;;;;;;;;;5020933;28;89418;-75
2022/02/24 03:20:32;;;;;;;21.15;17.45;;;;;;;;;;5021390;28;86928;-75
2022/02/24 03:23:00;;;;;;;19.27;16.08;;;;;;;;;;5021511;28;86888;-75
2022/02/24 03:25:28;;;;;;;20.98;16.50;;;;;;;;;;5021419;28;89605;-75
2022/02/24 03:27:56;;;;;;;19.63;16.02;;;;;;;;;;5022691;28;89318;-75
2022/02/24 03:30:23;;;;;;;23.02;17.60;;;;;;;;;;5024238;28;86769;-74
2022/02/24 03:32:51;;;;;;;21.73;17.77;;;;;;;;;;5024500;28;86945;-74
2022/02/24 03:35:19;;;;;;;26.75;16.20;;;;;;;;;;5025846;28;90970;-75
2022/02/24 03:37:50;;;;;;;22.35;17.20;;;;;;;;;;5026436;28;90040;-74
2022/02/24 03:40:18;;;;;;;19.42;17.35;;;;;;;;;;5021633;28;86752;-74
2022/02/24 03:42:48;;;;;;;21.50;17.52;;;;;;;;;;5022796;28;86793;-74
2022/02/24 03:45:16;;;;;;;23.65;16.23;;;;;;;;;;5022733;28;88745;-77
2022/02/24 03:47:45;;;;;;;20.50;17.73;;;;;;;;;;5019306;28;89777;-75
2022/02/24 03:50:13;;;;;;;21.83;17.23;;;;;;;;;;5024004;28;87033;-75
2022/02/24 03:52:41;;;;;;;20.33;16.85;;;;;;;;;;5023480;28;86242;-75
2022/02/24 03:55:09;;;;;;;21.25;16.98;;;;;;;;;;5023449;28;89164;-75
2022/02/24 03:57:37;;;;;;;23.25;17.80;;;;;;;;;;5023844;28;88979;-75
2022/02/24 04:00:06;;;;;;;26.65;19.20;;;;;;;;;;5023012;28;87856;-75
2022/02/24 04:02:40;;;;;;;22.17;18.73;;;;;;;;;;5021160;28;86895;-75
2022/02/24 04:05:15;;;;;;;23.60;18.13;;;;;;;;;;5021437;28;89382;-75
2022/02/24 04:07:43;;;;;;;21.88;18.10;;;;;;;;;;5021703;28;89777;-75
2022/02/24 04:10:11;;;;;;;21.38;18.38;;;;;;;;;;5020670;28;86886;-75
2022/02/24 04:12:40;;;;;;;29.33;17.35;;;;;;;;;;5023414;28;86946;-74
2022/02/24 04:15:08;;;;;;;23.73;19.27;;;;;;;;;;5023007;28;88701;-73
2022/02/24 04:17:37;;;;;;;23.05;18.60;;;;;;;;;;5021288;28;88512;-74
2022/02/24 04:20:07;;;;;;;23.33;20.25;;;;;;;;;;5024077;28;86925;-73
2022/02/24 04:22:34;;;;;;;20.90;17.63;;;;;;;;;;5006176;28;87039;-72
2022/02/24 04:25:01;;;;;;;24.08;17.17;;;;;;;;;;5020971;28;90922;-73
2022/02/24 04:27:28;;;;;;;24.17;18.35;;;;;;;;;;5022902;28;90011;-73
2022/02/24 04:29:55;;;;;;;22.92;18.60;;;;;;;;;;5025588;28;86790;-73
2022/02/24 04:32:24;;;;;;;22.90;19.40;;;;;;;;;;5024652;28;87189;-73
2022/02/24 04:34:51;;;;;;;21.65;18.42;;;;;;;;;;5025125;28;89880;-73
2022/02/24 04:37:20;;;;;;;22.98;18.55;;;;;;;;;;5023810;28;90227;-73
2022/02/24 04:39:48;;;;;;;21.63;17.40;;;;;;;;;;5017591;28;86801;-73
2022/02/24 04:42:15;;;;;;;22.23;17.60;;;;;;;;;;5024456;28;86213;-73
2022/02/24 04:44:43;;;;;;;26.25;18.95;;;;;;;;;;5023778;28;89682;-72
2022/02/24 04:47:14;;;;;;;20.15;17.42;;;;;;;;;;5023757;28;86849;-73
2022/02/24 04:49:42;;;;;;;24.40;18.65;;;;;;;;;;5024460;28;88168;-73
2022/02/24 04:52:09;;;;;;;20.98;17.75;;;;;;;;;;5007893;28;86996;-73
2022/02/24 04:54:37;;;;;;;22.08;18.13;;;;;;;;;;5024263;28;89781;-73
2022/02/24 04:57:04;;;;;;;22.88;19.45;;;;;;;;;;5023738;28;90207;-74
2022/02/24 04:59:32;;;;;;;22.65;17.70;;;;;;;;;;5023621;28;86950;-73
2022/02/24 05:01:59;;;;;;;22.17;18.02;;;;;;;;;;5023952;28;86959;-73
2022/02/24 05:04:27;;;;;;;25.23;18.02;;;;;;;;;;5023513;28;89856;-73
2022/02/24 05:06:54;;;;;;;24.60;18.27;;;;;;;;;;5023631;28;89406;-73
2022/02/24 05:09:22;;;;;;;23.38;17.63;;;;;;;;;;5023644;28;87017;-73
2022/02/24 05:11:52;;;;;;;20.92;17.45;;;;;;;;;;5023358;28;87428;-73
2022/02/24 05:14:27;;;;;;;22.90;19.08;;;;;;;;;;5023658;28;89581;-73
2022/02/24 05:16:55;;;;;;;23.05;18.95;;;;;;;;;;5022555;28;90813;-73
2022/02/24 05:19:22;;;;;;;23.55;17.95;;;;;;;;;;5024930;28;86896;-73
2022/02/24 05:21:50;;;;;;;25.45;17.55;;;;;;;;;;5023191;28;86935;-73
2022/02/24 05:24:17;;;;;;;22.13;16.88;;;;;;;;;;5024800;28;90127;-72
2022/02/24 05:26:45;;;;;;;24.63;17.48;;;;;;;;;;5022966;28;89901;-73
2022/02/24 05:29:12;;;;;;;23.42;16.77;;;;;;;;;;5024632;28;86844;-73
2022/02/24 05:31:41;;;;;;;20.30;16.90;;;;;;;;;;5024431;28;86226;-73
2022/02/24 05:34:09;;;;;;;20.73;16.92;;;;;;;;;;5022854;28;87252;-73
2022/02/24 05:36:38;;;;;;;20.15;16.65;;;;;;;;;;5023267;28;89525;-74
2022/02/24 05:39:06;;;;;;;22.52;16.98;;;;;;;;;;5022531;28;88414;-74
2022/02/24 05:41:35;;;;;;;22.52;18.42;;;;;;;;;;5023479;28;86932;-74
2022/02/24 05:44:03;;;;;;;27.63;19.70;;;;;;;;;;5022644;28;90152;-74
2022/02/24 05:46:31;;;;;;;22.48;17.75;;;;;;;;;;5023868;28;88418;-74
2022/02/24 05:48:59;;;;;;;24.33;19.50;;;;;;;;;;5022377;28;86808;-74
2022/02/24 05:51:28;;;;;;;26.92;19.17;;;;;;;;;;5024079;28;86814;-74
2022/02/24 05:53:55;;;;;;;22.30;19.42;;;;;;;;;;5022548;28;88936;-73
2022/02/24 05:56:23;;;;;;;21.30;18.38;;;;;;;;;;5024252;28;89279;-73
2022/02/24 05:58:51;;;;;;;27.38;20.50;;;;;;;;;;5023416;28;86932;-72
2022/02/24 06:01:18;;;;;;;21.80;18.85;;;;;;;;;;5019574;28;87224;-72
2022/02/24 06:03:48;;;;;;;22.63;18.90;;;;;;;;;;5002493;28;90816;-72
2022/02/24 06:06:15;;;;;;;21.35;18.92;;;;;;;;;;5023647;28;90684;-70
2022/02/24 06:08:43;;;;;;;23.85;17.63;;;;;;;;;;5021408;28;87002;-73
2022/02/24 06:11:10;;;;;;;19.95;16.48;;;;;;;;;;5016982;28;86942;-73
2022/02/24 06:13:38;;;;;;;22.95;20.23;;;;;;;;;;5018770;28;89756;-73
2022/02/24 06:16:05;;;;;;;23.67;19.25;;;;;;;;;;5017961;28;89765;-71
2022/02/24 06:18:32;;;;;;;20.13;17.35;;;;;;;;;;5019141;28;87889;-73
2022/02/24 06:21:00;;;;;;;26.95;19.48;;;;;;;;;;5016300;28;86264;-73
2022/02/24 06:23:28;;;;;;;25.98;18.48;;;;;;;;;;5021136;28;89949;-73
2022/02/24 06:25:56;;;;;;;22.67;18.10;;;;;;;;;;5019025;28;88749;-74
2022/02/24 06:28:30;;;;;;;23.15;18.10;;;;;;;;;;5018828;28;89655;-73
2022/02/24 06:30:58;;;;;;;27.17;18.77;;;;;;;;;;5021580;28;86817;-73
2022/02/24 06:33:26;;;;;;;24.65;19.38;;;;;;;;;;5018859;28;89456;-73
2022/02/24 06:35:56;;;;;;;20.42;17.80;;;;;;;;;;5019935;28;88560;-73
2022/02/24 06:38:24;;;;;;;20.05;16.85;;;;;;;;;;5017367;28;87652;-73
2022/02/24 06:40:53;;;;;;;24.38;17.55;;;;;;;;;;5020074;28;86953;-74
2022/02/24 06:43:21;;;;;;;20.88;17.15;;;;;;;;;;5018571;28;88287;-73
2022/02/24 06:45:49;;;;;;;24.30;18.40;;;;;;;;;;5019463;28;89341;-74
2022/02/24 06:48:16;;;;;;;36.75;18.05;;;;;;;;;;5018570;28;86956;-74
2022/02/24 06:50:44;;;;;;;23.88;16.05;;;;;;;;;;5019248;28;86916;-74
2022/02/24 06:53:11;;;;;;;23.90;16.48;;;;;;;;;;5018208;28;90656;-75
2022/02/24 06:55:38;;;;;;;20.67;15.82;;;;;;;;;;5018702;28;90271;-73
2022/02/24 06:58:05;;;;;;;19.23;15.30;;;;;;;;;;5017374;28;87064;-76
2022/02/24 07:00:33;;;;;;;19.25;15.15;;;;;;;;;;5018659;28;87380;-76
2022/02/24 07:03:03;;;;;;;21.17;17.50;;;;;;;;;;5020599;28;89783;-69
2022/02/24 07:05:32;;;;;;;19.80;15.48;;;;;;;;;;5021138;28;89570;-76
2022/02/24 07:08:02;;;;;;;25.27;16.20;;;;;;;;;;5018977;28;86891;-75
2022/02/24 07:10:29;;;;;;;39.17;19.35;;;;;;;;;;5018902;28;87103;-75
2022/02/24 07:12:56;;;;;;;30.35;18.30;;;;;;;;;;5018592;28;89723;-74
2022/02/24 07:15:23;;;;;;;26.95;17.92;;;;;;;;;;5018549;28;89167;-74
2022/02/24 07:17:51;;;;;;;19.48;16.00;;;;;;;;;;5018174;28;88333;-74
2022/02/24 07:20:19;;;;;;;25.40;15.95;;;;;;;;;;5019308;28;87238;-74
2022/02/24 07:22:46;;;;;;;52.75;19.20;;;;;;;;;;5019338;28;88163;-75
2022/02/24 07:25:14;;;;;;;32.08;19.42;;;;;;;;;;5019207;28;89755;-74
2022/02/24 07:27:42;;;;;;;22.98;16.58;;;;;;;;;;5021433;28;86771;-72
2022/02/24 07:30:10;;;;;;;22.52;18.60;;;;;;;;;;5019095;28;86918;-73
2022/02/24 07:32:38;;;;;;;20.35;17.77;;;;;;;;;;5017520;28;89921;-73
2022/02/24 07:35:06;;;;;;;30.13;22.20;;;;;;;;;;5020231;28;89566;-73
2022/02/24 07:37:33;;;;;;;30.60;22.67;;;;;;;;;;5020390;28;87313;-73
2022/02/24 07:40:03;;;;;;;33.55;24.27;;;;;;;;;;5020560;28;86981;-74
2022/02/24 07:42:34;;;;;;;31.42;21.10;;;;;;;;;;5020499;28;91342;-73
2022/02/24 07:45:04;;;;;;;28.90;21.05;;;;;;;;;;5020745;28;89109;-74
2022/02/24 07:47:33;;;;;;;27.08;21.52;;;;;;;;;;5021873;28;88270;-74
2022/02/24 07:50:01;;;;;;;29.90;21.60;;;;;;;;;;5020996;28;87000;-74
2022/02/24 07:52:29;;;;;;;25.35;21.73;;;;;;;;;;5022108;28;90093;-74
2022/02/24 07:54:56;;;;;;;25.38;21.45;;;;;;;;;;5021949;28;89526;-74
2022/02/24 07:57:24;;;;;;;23.13;20.52;;;;;;;;;;5020838;28;86765;-74
2022/02/24 07:59:51;;;;;;;32.80;23.33;;;;;;;;;;5023034;28;86206;-74
2022/02/24 08:02:18;;;;;;;25.90;18.80;;;;;;;;;;5020271;28;89658;-74
2022/02/24 08:04:46;;;;;;;24.17;18.52;;;;;;;;;;5020437;28;88396;-74
2022/02/24 08:07:14;;;;;;;24.85;17.40;;;;;;;;;;5019843;28;87814;-74
2022/02/24 08:09:42;;;;;;;29.98;19.13;;;;;;;;;;5022253;28;86932;-74
2022/02/24 08:14:55;;;;;;;19.67;16.92;;;;;;;;;;5007403;28;89715;-74
2022/02/24 08:17:25;;;;;;;38.25;16.88;;;;;;;;;;5023094;28;86846;-74
2022/02/24 08:19:53;;;;;;;24.13;16.88;;;;;;;;;;5025397;28;86818;-74
2022/02/24 08:22:21;;;;;;;17.73;14.15;;;;;;;;;;5024022;28;89799;-74
2022/02/24 08:24:49;;;;;;;16.08;14.10;;;;;;;;;;5024128;28;89198;-74
2022/02/24 08:27:18;;;;;;;22.42;15.85;;;;;;;;;;5025362;28;87280;-74
2022/02/24 08:29:46;;;;;;;22.23;15.43;;;;;;;;;;5025145;28;86957;-74
2022/02/24 08:32:13;;;;;;;22.15;15.18;;;;;;;;;;5022979;28;88935;-74
2022/02/24 08:34:41;;;;;;;19.52;14.38;;;;;;;;;;5022764;28;90153;-75
2022/02/24 08:37:09;;;;;;;19.40;13.85;;;;;;;;;;5018833;28;87235;-76
2022/02/24 08:39:37;;;;;;;16.13;13.32;;;;;;;;;;5022374;28;87056;-75
2022/02/24 08:42:06;;;;;;;14.88;12.73;;;;;;;;;;5019646;28;89183;-76
2022/02/24 08:44:34;;;;;;;20.05;13.80;;;;;;;;;;5010682;28;89616;-75
2022/02/24 08:47:02;;;;;;;23.65;14.15;;;;;;;;;;5016696;28;87324;-76
2022/02/24 08:49:31;;;;;;;20.38;12.98;;;;;;;;;;5014858;28;87216;-76
2022/02/24 08:51:58;;;;;;;16.60;12.43;;;;;;;;;;5023008;28;89523;-76
2022/02/24 08:54:25;;;;;;;13.60;12.15;;;;;;;;;;5022329;28;89450;-76
2022/02/24 08:56:53;;;;;;;17.65;12.85;;;;;;;;;;5006120;28;87991;-76
2022/02/24 08:59:21;;;;;;;21.67;15.85;;;;;;;;;;5023404;28;86906;-74
2022/02/24 09:01:48;;;;;;;25.17;18.83;;;;;;;;;;5005751;28;89647;-75
2022/02/24 09:04:15;;;;;;;26.73;21.42;;;;;;;;;;5006614;28;89749;-75
2022/02/24 09:06:43;;;;;;;31.02;22.85;;;;;;;;;;5022854;28;86767;-75
2022/02/24 09:09:10;;;;;;;30.52;23.60;;;;;;;;;;5005795;28;87130;-75
2022/02/24 09:11:38;;;;;;;26.15;21.33;;;;;;;;;;5022182;28;89830;-74
2022/02/24 09:14:05;;;;;;;33.38;24.50;;;;;;;;;;5023132;28;89572;-75
2022/02/24 09:16:34;;;;;;;21.92;17.33;;;;;;;;;;5021861;28;86754;-75
2022/02/24 09:19:03;;;;;;;27.77;15.27;;;;;;;;;;5023001;28;87042;-75
2022/02/24 09:21:31;;;;;;;25.58;19.27;;;;;;;;;;5021585;28;90721;-75
2022/02/24 09:23:58;;;;;;;23.40;16.45;;;;;;;;;;5022829;28;90655;-75
2022/02/24 09:26:26;;;;;;;16.90;13.95;;;;;;;;;;5021563;28;86841;-75
2022/02/24 09:28:53;;;;;;;13.98;11.70;;;;;;;;;;5022110;28;86934;-75
2022/02/24 09:31:21;;;;;;;18.33;15.30;;;;;;;;;;5022516;28;89534;-76
2022/02/24 09:33:48;;;;;;;30.98;23.13;;;;;;;;;;5022706;28;89600;-75
2022/02/24 09:36:15;;;;;;;25.15;20.80;;;;;;;;;;5021098;28;86966;-75
2022/02/24 09:38:42;;;;;;;19.02;15.55;;;;;;;;;;5023194;28;86298;-75
2022/02/24 09:41:11;;;;;;;22.40;15.00;;;;;;;;;;5021925;28;88296;-75
2022/02/24 09:43:38;;;;;;;17.98;15.43;;;;;;;;;;5022227;28;88976;-75
2022/02/24 09:46:08;;;;;;;17.90;14.70;;;;;;;;;;5020242;28;87937;-75
2022/02/24 09:48:37;;;;;;;18.58;15.15;;;;;;;;;;5021484;28;87175;-75
2022/02/24 09:51:08;;;;;;;35.97;19.52;;;;;;;;;;5020007;28;89687;-74
2022/02/24 09:53:35;;;;;;;27.05;19.27;;;;;;;;;;5021255;28;89700;-74
2022/02/24 09:56:03;;;;;;;19.65;15.35;;;;;;;;;;5022797;28;86856;-75
2022/02/24 09:58:34;;;;;;;17.13;13.93;;;;;;;;;;5023118;28;86925;-75
2022/02/24 10:01:02;;;;;;;34.25;16.52;;;;;;;;;;5022293;28;88366;-74
2022/02/24 10:03:33;;;;;;;17.60;14.93;;;;;;;;;;5015338;28;89191;-76
2022/02/24 10:06:02;;;;;;;17.15;14.27;;;;;;;;;;5023726;28;86855;-75
2022/02/24 10:08:34;;;;;;;17.88;14.80;;;;;;;;;;5015865;28;87010;-75
2022/02/24 10:11:02;;;;;;;29.00;16.95;;;;;;;;;;5021717;28;90813;-75
2022/02/24 10:13:30;;;;;;;16.08;14.38;;;;;;;;;;5022545;28;90464;-74
2022/02/24 10:16:01;;;;;;;17.73;15.05;;;;;;;;;;5023095;28;87072;-76
2022/02/24 10:18:31;;;;;;;19.92;15.00;;;;;;;;;;5023047;28;86860;-75
2022/02/24 10:21:01;;;;;;;20.63;15.70;;;;;;;;;;5021366;28;88482;-75
2022/02/24 10:23:39;;;;;;;22.77;15.48;;;;;;;;;;5021942;28;89752;-75
2022/02/24 10:26:11;;;;;;;24.55;16.63;;;;;;;;;;5023310;28;86992;-75
2022/02/24 10:28:51;;;;;;;21.15;16.10;;;;;;;;;;5023577;28;86178;-76
2022/02/24 10:31:23;;;;;;;22.02;16.80;;;;;;;;;;5021898;28;90053;-75
2022/02/24 10:34:10;;;;;;;26.35;17.23;;;;;;;;;;5021962;28;88121;-76
2022/02/24 10:36:38;;;;;;;23.42;17.50;;;;;;;;;;5021384;28;87842;-75
2022/02/24 10:39:09;;;;;;;21.38;18.83;;;;;;;;;;5023682;28;86934;-76
2022/02/24 10:41:43;;;;;;;27.17;17.13;;;;;;;;;;5022761;28;89538;-76
2022/02/24 10:44:15;;;;;;;;;;;;;;;;;;5022404;28;89518;-76
2022/02/24 10:46:45;;;;;;;27.15;20.35;;;;;;;;;;5022459;28;87449;-75
2022/02/24 10:49:46;;;;;;;25.63;20.60;;;;;;;;;;5017763;28;86868;-75
2022/02/24 10:52:18;;;;;;;24.20;18.80;;;;;;;;;;5021405;28;89130;-76
2022/02/24 10:54:57;;;;;;;26.25;20.63;;;;;;;;;;5021889;28;88245;-75
2022/02/24 10:57:27;;;;;;;24.70;20.85;;;;;;;;;;5021633;28;87546;-75
2022/02/24 10:59:56;;;;;;;24.02;19.95;;;;;;;;;;5022113;28;86928;-75
2022/02/24 11:02:25;;;;;;;22.70;19.63;;;;;;;;;;5019976;28;90379;-75
2022/02/24 11:04:53;;;;;;;23.63;19.70;;;;;;;;;;5022030;28;90339;-75
2022/02/24 11:07:23;;;;;;;24.65;21.38;;;;;;;;;;5020608;28;86791;-73
2022/02/24 11:09:51;;;;;;;22.27;19.95;;;;;;;;;;5021491;28;86948;-76
2022/02/24 11:12:23;;;;;;;28.15;22.15;;;;;;;;;;5021430;28;89145;-75
2022/02/24 11:14:52;;;;;;;27.48;22.13;;;;;;;;;;5021146;28;89479;-75
2022/02/24 11:17:21;;;;;;;32.85;24.10;;;;;;;;;;5021435;28;88623;-75
2022/02/24 11:19:48;;;;;;;29.70;23.05;;;;;;;;;;5022360;28;87155;-76
2022/02/24 11:22:17;;;;;;;25.35;22.42;;;;;;;;;;5017592;28;89739;-73
2022/02/24 11:24:45;;;;;;;25.25;21.83;;;;;;;;;;5021678;28;90332;-74
2022/02/24 11:27:28;;;;;;;30.63;22.65;;;;;;;;;;5021494;28;88407;-74
2022/02/24 11:30:09;;;;;;;27.73;23.20;;;;;;;;;;5022437;28;86852;-75
2022/02/24 11:32:37;;;;;;;29.45;22.55;;;;;;;;;;5022263;28;90458;-75
2022/02/24 11:35:18;;;;;;;24.92;21.70;;;;;;;;;;5021028;28;89397;-75
2022/02/24 11:38:10;;;;;;;35.13;25.05;;;;;;;;;;5020907;28;86913;-75
2022/02/24 11:40:37;;;;;;;27.05;22.73;;;;;;;;;;5020327;28;87340;-75
2022/02/24 11:43:11;;;;;;;25.23;22.52;;;;;;;;;;5020505;28;89733;-75
2022/02/24 11:45:49;;;;;;;27.30;24.20;;;;;;;;;;5022292;28;88243;-75
2022/02/24 11:48:43;;;;;;;28.08;24.50;;;;;;;;;;5020448;28;86897;-75
2022/02/24 11:51:20;;;;;;;30.23;23.92;;;;;;;;;;5022123;28;86966;-76
2022/02/24 11:53:49;;;;;;;27.10;24.23;;;;;;;;;;5023164;28;90405;-75
2022/02/24 11:56:20;;;;;;;28.58;25.15;;;;;;;;;;5024416;28;90499;-75
2022/02/24 11:58:54;;;;;;;35.05;23.25;;;;;;;;;;5024301;28;87382;-74
2022/02/24 12:01:44;;;;;;;25.98;22.75;;;;;;;;;;5025654;28;86911;-75
2022/02/24 12:04:17;;;;;;;26.23;21.65;;;;;;;;;;5024793;28;89306;-74
2022/02/24 12:06:55;;;;;;;31.10;23.10;;;;;;;;;;5025404;28;89559;-74
2022/02/24 12:09:27;;;;;;;29.00;24.00;;;;;;;;;;5023075;28;86901;-75
2022/02/24 12:12:17;;;;;;;27.67;22.63;;;;;;;;;;5025452;28;86241;-74
2022/02/24 12:14:56;;;;;;;30.50;25.17;;;;;;;;;;5024565;28;89817;-75
2022/02/24 12:17:25;;;;;;;29.85;24.08;;;;;;;;;;5024369;28;89037;-75
2022/02/24 12:20:00;;;;;;;33.10;22.98;;;;;;;;;;5023174;28;88049;-76
2022/02/24 12:22:36;;;;;;;27.02;22.60;;;;;;;;;;5005181;28;87010;-76
2022/02/24 12:25:15;;;;;;;29.58;24.08;;;;;;;;;;5012082;28;88569;-76
2022/02/24 12:28:04;;;;;;;26.48;23.55;;;;;;;;;;5024237;28;89115;-76
2022/02/24 12:30:37;;;;;;;33.30;25.50;;;;;;;;;;5022315;28;86691;-76
2022/02/24 12:33:15;;;;;;;28.98;24.40;;;;;;;;;;5024879;28;86774;-76
2022/02/24 12:35:50;;;;;;;28.75;25.70;;;;;;;;;;5023437;28;89319;-75
2022/02/24 12:38:22;;;;;;;31.20;25.80;;;;;;;;;;5024188;28;87454;-75
2022/02/24 12:40:53;;;;;;;33.05;26.02;;;;;;;;;;5023452;28;87414;-75
2022/02/24 12:43:23;;;;;;;35.72;26.92;;;;;;;;;;5024497;28;87353;-76
2022/02/24 12:45:53;;;;;;;30.05;26.77;;;;;;;;;;5022624;28;88862;-75
2022/02/24 12:48:20;;;;;;;27.98;25.08;;;;;;;;;;5021633;28;90510;-76
2022/02/24 12:50:51;;;;;;;31.25;24.15;;;;;;;;;;5023493;28;86794;-76
2022/02/24 12:53:21;;;;;;;28.75;24.95;;;;;;;;;;5024516;28;86763;-76
2022/02/24 12:55:51;;;;;;;36.03;28.08;;;;;;;;;;5024710;28;89568;-76
2022/02/24 12:58:20;;;;;;;31.15;25.98;;;;;;;;;;5023721;28;89430;-76
2022/02/24 13:00:52;;;;;;;30.27;26.52;;;;;;;;;;5024488;28;86869;-76
2022/02/24 13:03:25;;;;;;;34.13;26.23;;;;;;;;;;5024485;28;86037;-75
2022/02/24 13:05:53;;;;;;;30.70;25.27;;;;;;;;;;5023152;28;89465;-76
2022/02/24 13:11:09;;;;;;;31.00;26.17;;;;;;;;;;5022322;28;87837;-76
2022/02/24 13:13:37;;;;;;;32.58;29.15;;;;;;;;;;5024409;28;87007;-76
2022/02/24 13:16:06;;;;;;;31.10;27.83;;;;;;;;;;5022776;28;89642;-76
2022/02/24 13:18:41;;;;;;;28.90;24.98;;;;;;;;;;5023179;28;89661;-76
2022/02/24 13:21:09;;;;;;;31.40;26.65;;;;;;;;;;5023629;28;86812;-76
2022/02/24 13:23:37;;;;;;;32.72;28.98;;;;;;;;;;5007016;28;87138;-76
2022/02/24 13:26:06;;;;;;;31.25;27.27;;;;;;;;;;5024463;28;89462;-76
2022/02/24 13:28:36;;;;;;;40.95;29.15;;;;;;;;;;5024290;28;89240;-76
2022/02/24 13:31:05;;;;;;;37.75;28.95;;;;;;;;;;5022948;28;87350;-76
2022/02/24 13:33:35;;;;;;;34.55;30.25;;;;;;;;;;5024365;28;87180;-76
2022/02/24 13:36:07;;;;;;;33.85;28.55;;;;;;;;;;5023412;28;89151;-76
2022/02/24 13:38:44;;;;;;;33.47;28.30;;;;;;;;;;5022155;28;91569;-76
2022/02/24 13:41:15;;;;;;;36.95;30.88;;;;;;;;;;5022831;28;86924;-76
2022/02/24 13:43:47;;;;;;;34.17;30.48;;;;;;;;;;5024130;28;86858;-76
2022/02/24 13:46:15;;;;;;;37.97;27.98;;;;;;;;;;5022025;28;89875;-76
2022/02/24 13:48:45;;;;;;;36.17;29.17;;;;;;;;;;5023725;28;89529;-76
2022/02/24 13:51:13;;;;;;;36.67;27.60;;;;;;;;;;5023621;28;86806;-76
2022/02/24 13:53:54;;;;;;;36.17;29.45;;;;;;;;;;5023693;28;86106;-76
2022/02/24 13:56:29;;;;;;;40.72;29.52;;;;;;;;;;5023043;28;89814;-76
2022/02/24 13:58:58;;;;;;;39.28;31.15;;;;;;;;;;5023977;28;89830;-76
2022/02/24 14:01:30;;;;;;;38.00;30.65;;;;;;;;;;5021491;28;87854;-76
2022/02/24 14:03:59;;;;;;;35.88;29.48;;;;;;;;;;5023090;28;86945;-76
2022/02/24 14:06:40;;;;;;;31.90;27.88;;;;;;;;;;5021853;28;87810;-76
2022/02/24 14:09:18;;;;;;;41.47;31.00;;;;;;;;;;5022437;28;89635;-76
2022/02/24 14:11:47;;;;;;;35.13;29.55;;;;;;;;;;5023349;28;86891;-76
2022/02/24 14:14:15;;;;;;;34.38;30.58;;;;;;;;;;5023330;28;86887;-76
2022/02/24 14:16:43;;;;;;;34.80;30.35;;;;;;;;;;5019816;28;88565;-76
2022/02/24 14:19:11;;;;;;;38.67;31.70;;;;;;;;;;5022571;28;89201;-76
2022/02/24 14:21:39;;;;;;;36.90;29.73;;;;;;;;;;5022895;28;87368;-76
2022/02/24 14:24:07;;;;;;;41.53;31.27;;;;;;;;;;5022060;28;87024;-76
2022/02/24 14:26:34;;;;;;;35.63;29.52;;;;;;;;;;5022601;28;91092;-76
2022/02/24 14:29:02;;;;;;;36.22;29.70;;;;;;;;;;5021468;28;90150;-76
2022/02/24 14:31:30;;;;;;;34.35;28.70;;;;;;;;;;5021913;28;86884;-76
2022/02/24 14:34:00;;;;;;;35.47;31.05;;;;;;;;;;5022898;28;87303;-76
2022/02/24 14:36:27;;;;;;;39.72;31.75;;;;;;;;;;5022989;28;88262;-76